sensor_id;sensor_type;location;lat;lon;timestamp;pressure;altitude;pressure_sealevel;temperature;humidity
56038;BME280;41907;47.848;9.000;2023-03-15T00:02:24;95267.97;;;3.35;100.00
56038;BME280;41907;47.848;9.000;2023-03-15T00:04:50;95264.28;;;3.36;100.00
56038;BME280;41907;47.848;9.000;2023-03-15T00:07:16;95276.41;;;3.32;100.00
56038;BME280;41907;47.848;9.000;2023-03-15T00:09:41;95279.53;;;3.44;100.00
56038;BME280;41907;47.848;9.000;2023-03-15T00:12:07;95275.63;;;3.31;100.00
56038;BME280;41907;47.848;9.000;2023-03-15T00:14:32;95282.75;;;3.31;100.00
56038;BME280;41907;47.848;9.000;2023-03-15T00:16:58;95283.31;;;3.28;100.00
56038;BME280;41907;47.848;9.000;2023-03-15T00:19:23;95285.69;;;3.24;100.00
56038;BME280;41907;47.848;9.000;2023-03-15T00:21:48;95281.47;;;3.28;100.00
56038;BME280;41907;47.848;9.000;2023-03-15T00:24:14;95287.00;;;3.27;100.00
56038;BME280;41907;47.848;9.000;2023-03-15T00:26:39;95296.25;;;3.24;100.00
56038;BME280;41907;47.848;9.000;2023-03-15T00:29:04;95292.03;;;3.23;100.00
56038;BME280;41907;47.848;9.000;2023-03-15T00:31:30;95297.28;;;3.23;100.00
56038;BME280;41907;47.848;9.000;2023-03-15T00:33:55;95308.94;;;3.17;100.00
56038;BME280;41907;47.848;9.000;2023-03-15T00:36:21;95316.84;;;3.12;100.00
56038;BME280;41907;47.848;9.000;2023-03-15T00:38:48;95325.88;;;3.01;100.00
56038;BME280;41907;47.848;9.000;2023-03-15T00:41:16;95325.88;;;2.96;100.00
56038;BME280;41907;47.848;9.000;2023-03-15T00:43:42;95332.19;;;3.00;100.00
56038;BME280;41907;47.848;9.000;2023-03-15T00:46:08;95335.28;;;3.12;100.00
56038;BME280;41907;47.848;9.000;2023-03-15T00:48:34;95341.38;;;3.03;100.00
56038;BME280;41907;47.848;9.000;2023-03-15T00:51:05;95335.56;;;3.06;100.00
56038;BME280;41907;47.848;9.000;2023-03-15T00:53:32;95341.72;;;2.81;100.00
56038;BME280;41907;47.848;9.000;2023-03-15T00:55:57;95339.06;;;2.86;100.00
56038;BME280;41907;47.848;9.000;2023-03-15T00:58:23;95347.78;;;2.76;100.00
56038;BME280;41907;47.848;9.000;2023-03-15T01:00:48;95363.03;;;2.84;100.00
56038;BME280;41907;47.848;9.000;2023-03-15T01:03:14;95377.84;;;2.60;100.00
56038;BME280;41907;47.848;9.000;2023-03-15T01:05:39;95388.88;;;2.57;100.00
56038;BME280;41907;47.848;9.000;2023-03-15T01:08:05;95382.84;;;2.41;100.00
56038;BME280;41907;47.848;9.000;2023-03-15T01:10:30;95396.78;;;2.37;100.00
56038;BME280;41907;47.848;9.000;2023-03-15T01:12:58;95399.16;;;2.18;100.00
56038;BME280;41907;47.848;9.000;2023-03-15T01:15:23;95407.59;;;2.35;100.00
56038;BME280;41907;47.848;9.000;2023-03-15T01:17:49;95420.78;;;2.45;100.00
56038;BME280;41907;47.848;9.000;2023-03-15T01:20:14;95430.22;;;2.46;100.00
56038;BME280;41907;47.848;9.000;2023-03-15T01:22:40;95443.66;;;2.45;100.00
56038;BME280;41907;47.848;9.000;2023-03-15T01:25:05;95456.03;;;2.44;100.00
56038;BME280;41907;47.848;9.000;2023-03-15T01:27:31;95456.03;;;2.34;100.00
56038;BME280;41907;47.848;9.000;2023-03-15T01:29:57;95461.03;;;2.36;100.00
56038;BME280;41907;47.848;9.000;2023-03-15T01:32:22;95462.56;;;2.21;100.00
56038;BME280;41907;47.848;9.000;2023-03-15T01:34:48;95462.31;;;2.38;100.00
56038;BME280;41907;47.848;9.000;2023-03-15T01:37:13;95484.94;;;2.24;100.00
56038;BME280;41907;47.848;9.000;2023-03-15T01:39:40;95475.47;;;2.23;100.00
56038;BME280;41907;47.848;9.000;2023-03-15T01:42:05;95481.00;;;2.16;100.00
56038;BME280;41907;47.848;9.000;2023-03-15T01:44:55;95490.69;;;1.96;100.00
56038;BME280;41907;47.848;9.000;2023-03-15T01:47:21;95502.81;;;2.07;100.00
56038;BME280;41907;47.848;9.000;2023-03-15T01:49:55;95510.16;;;2.05;100.00
56038;BME280;41907;47.848;9.000;2023-03-15T01:52:25;95513.56;;;2.00;100.00
56038;BME280;41907;47.848;9.000;2023-03-15T01:55:00;95510.34;;;1.83;100.00
56038;BME280;41907;47.848;9.000;2023-03-15T01:57:34;95516.09;;;1.75;100.00
56038;BME280;41907;47.848;9.000;2023-03-15T02:00:06;95523.78;;;1.86;100.00
56038;BME280;41907;47.848;9.000;2023-03-15T02:02:35;95545.03;;;1.80;100.00
56038;BME280;41907;47.848;9.000;2023-03-15T02:05:06;95542.53;;;1.53;100.00
56038;BME280;41907;47.848;9.000;2023-03-15T02:07:36;95543.09;;;1.55;100.00
56038;BME280;41907;47.848;9.000;2023-03-15T02:10:11;95551.03;;;1.65;100.00
56038;BME280;41907;47.848;9.000;2023-03-15T02:12:42;95555.97;;;1.57;100.00
56038;BME280;41907;47.848;9.000;2023-03-15T02:15:11;95561.25;;;1.62;100.00
56038;BME280;41907;47.848;9.000;2023-03-15T02:17:43;95553.66;;;1.65;100.00
56038;BME280;41907;47.848;9.000;2023-03-15T02:28:18;95561.38;;;1.87;100.00
56038;BME280;41907;47.848;9.000;2023-03-15T02:30:45;95566.13;;;1.90;100.00
56038;BME280;41907;47.848;9.000;2023-03-15T02:35:50;95567.38;;;1.77;100.00
56038;BME280;41907;47.848;9.000;2023-03-15T02:38:15;95565.50;;;1.68;100.00
56038;BME280;41907;47.848;9.000;2023-03-15T02:40:43;95568.13;;;1.68;100.00
56038;BME280;41907;47.848;9.000;2023-03-15T02:43:13;95573.09;;;1.59;100.00
56038;BME280;41907;47.848;9.000;2023-03-15T02:45:40;95575.91;;;1.53;100.00
56038;BME280;41907;47.848;9.000;2023-03-15T02:48:06;95582.94;;;1.42;100.00
56038;BME280;41907;47.848;9.000;2023-03-15T02:50:33;95588.16;;;1.32;100.00
56038;BME280;41907;47.848;9.000;2023-03-15T02:52:59;95593.59;;;1.20;100.00
56038;BME280;41907;47.848;9.000;2023-03-15T02:55:27;95597.25;;;1.19;100.00
56038;BME280;41907;47.848;9.000;2023-03-15T02:57:52;95594.84;;;1.13;100.00
56038;BME280;41907;47.848;9.000;2023-03-15T03:00:18;95607.38;;;1.05;100.00
56038;BME280;41907;47.848;9.000;2023-03-15T03:02:45;95597.63;;;1.01;100.00
56038;BME280;41907;47.848;9.000;2023-03-15T03:05:12;95602.34;;;0.99;100.00
56038;BME280;41907;47.848;9.000;2023-03-15T03:07:38;95601.25;;;0.95;100.00
56038;BME280;41907;47.848;9.000;2023-03-15T03:10:04;95611.47;;;0.91;100.00
56038;BME280;41907;47.848;9.000;2023-03-15T03:12:31;95607.72;;;0.82;100.00
56038;BME280;41907;47.848;9.000;2023-03-15T03:14:56;95617.66;;;0.80;100.00
56038;BME280;41907;47.848;9.000;2023-03-15T03:17:22;95617.09;;;0.78;100.00
56038;BME280;41907;47.848;9.000;2023-03-15T03:19:47;95618.22;;;0.82;100.00
56038;BME280;41907;47.848;9.000;2023-03-15T03:22:13;95634.94;;;0.76;100.00
56038;BME280;41907;47.848;9.000;2023-03-15T03:24:38;95639.59;;;0.69;100.00
56038;BME280;41907;47.848;9.000;2023-03-15T03:27:04;95647.09;;;0.55;100.00
56038;BME280;41907;47.848;9.000;2023-03-15T03:29:30;95660.31;;;0.44;100.00
56038;BME280;41907;47.848;9.000;2023-03-15T03:31:55;95645.66;;;0.48;100.00
56038;BME280;41907;47.848;9.000;2023-03-15T03:34:20;95658.38;;;0.34;100.00
56038;BME280;41907;47.848;9.000;2023-03-15T03:36:46;95650.06;;;0.42;100.00
56038;BME280;41907;47.848;9.000;2023-03-15T03:39:13;95654.03;;;0.45;100.00
56038;BME280;41907;47.848;9.000;2023-03-15T03:41:38;95655.88;;;0.44;100.00
56038;BME280;41907;47.848;9.000;2023-03-15T03:44:04;95665.22;;;0.35;100.00
56038;BME280;41907;47.848;9.000;2023-03-15T03:46:29;95665.13;;;0.30;100.00
56038;BME280;41907;47.848;9.000;2023-03-15T03:48:54;95667.47;;;0.26;100.00
56038;BME280;41907;47.848;9.000;2023-03-15T03:51:20;95671.69;;;0.27;100.00
56038;BME280;41907;47.848;9.000;2023-03-15T03:53:45;95671.69;;;0.27;100.00
56038;BME280;41907;47.848;9.000;2023-03-15T03:56:11;95685.84;;;0.26;100.00
56038;BME280;41907;47.848;9.000;2023-03-15T03:58:36;95685.28;;;0.24;100.00
56038;BME280;41907;47.848;9.000;2023-03-15T04:01:01;95681.84;;;0.24;100.00
56038;BME280;41907;47.848;9.000;2023-03-15T04:03:28;95685.03;;;0.26;100.00
56038;BME280;41907;47.848;9.000;2023-03-15T04:05:54;95687.22;;;0.34;100.00
56038;BME280;41907;47.848;9.000;2023-03-15T04:08:20;95688.31;;;0.38;100.00
56038;BME280;41907;47.848;9.000;2023-03-15T04:10:51;95700.09;;;0.35;100.00
56038;BME280;41907;47.848;9.000;2023-03-15T04:13:18;95703.53;;;0.36;100.00
56038;BME280;41907;47.848;9.000;2023-03-15T04:15:44;95707.75;;;0.37;100.00
56038;BME280;41907;47.848;9.000;2023-03-15T04:18:09;95713.50;;;0.39;100.00
56038;BME280;41907;47.848;9.000;2023-03-15T04:20:34;95717.00;;;0.45;100.00
56038;BME280;41907;47.848;9.000;2023-03-15T04:23:00;95716.25;;;0.49;100.00
56038;BME280;41907;47.848;9.000;2023-03-15T04:25:26;95716.03;;;0.51;100.00
56038;BME280;41907;47.848;9.000;2023-03-15T04:27:52;95726.28;;;0.52;100.00
56038;BME280;41907;47.848;9.000;2023-03-15T04:30:25;95723.09;;;0.50;100.00
56038;BME280;41907;47.848;9.000;2023-03-15T04:32:54;95719.19;;;0.53;100.00
56038;BME280;41907;47.848;9.000;2023-03-15T04:35:27;95724.69;;;0.51;100.00
56038;BME280;41907;47.848;9.000;2023-03-15T04:37:53;95725.97;;;0.49;100.00
56038;BME280;41907;47.848;9.000;2023-03-15T04:40:19;95733.31;;;0.47;100.00
56038;BME280;41907;47.848;9.000;2023-03-15T04:42:44;95742.44;;;0.44;100.00
56038;BME280;41907;47.848;9.000;2023-03-15T04:45:10;95743.00;;;0.46;100.00
56038;BME280;41907;47.848;9.000;2023-03-15T04:47:36;95755.34;;;0.46;100.00
56038;BME280;41907;47.848;9.000;2023-03-15T04:50:02;95758.09;;;0.39;100.00
56038;BME280;41907;47.848;9.000;2023-03-15T04:52:27;95758.78;;;0.29;100.00
56038;BME280;41907;47.848;9.000;2023-03-15T04:54:52;95754.25;;;0.25;100.00
56038;BME280;41907;47.848;9.000;2023-03-15T04:57:18;95752.91;;;0.22;100.00
56038;BME280;41907;47.848;9.000;2023-03-15T04:59:43;95763.41;;;0.22;100.00
56038;BME280;41907;47.848;9.000;2023-03-15T05:02:08;95763.16;;;0.24;100.00
56038;BME280;41907;47.848;9.000;2023-03-15T05:04:34;95765.16;;;0.17;100.00
56038;BME280;41907;47.848;9.000;2023-03-15T05:06:59;95765.47;;;0.20;100.00
56038;BME280;41907;47.848;9.000;2023-03-15T05:09:24;95769.38;;;0.18;100.00
56038;BME280;41907;47.848;9.000;2023-03-15T05:11:50;95772.16;;;0.11;100.00
56038;BME280;41907;47.848;9.000;2023-03-15T05:14:15;95782.03;;;0.04;100.00
56038;BME280;41907;47.848;9.000;2023-03-15T05:16:40;95781.69;;;0.00;100.00
56038;BME280;41907;47.848;9.000;2023-03-15T05:19:07;95788.94;;;-0.07;100.00
56038;BME280;41907;47.848;9.000;2023-03-15T05:21:33;95797.59;;;-0.06;100.00
56038;BME280;41907;47.848;9.000;2023-03-15T05:23:58;95788.38;;;-0.09;100.00
56038;BME280;41907;47.848;9.000;2023-03-15T05:26:23;95791.09;;;-0.20;100.00
56038;BME280;41907;47.848;9.000;2023-03-15T05:28:50;95793.63;;;-0.25;100.00
56038;BME280;41907;47.848;9.000;2023-03-15T05:31:16;95796.88;;;-0.35;100.00
56038;BME280;41907;47.848;9.000;2023-03-15T05:33:42;95789.72;;;-0.40;100.00
56038;BME280;41907;47.848;9.000;2023-03-15T05:36:11;95794.06;;;-0.45;100.00
56038;BME280;41907;47.848;9.000;2023-03-15T05:38:39;95793.44;;;-0.52;100.00
56038;BME280;41907;47.848;9.000;2023-03-15T05:41:07;95796.53;;;-0.55;100.00
56038;BME280;41907;47.848;9.000;2023-03-15T05:43:32;95797.06;;;-0.70;100.00
56038;BME280;41907;47.848;9.000;2023-03-15T05:45:57;95802.16;;;-0.63;100.00
56038;BME280;41907;47.848;9.000;2023-03-15T05:48:23;95802.88;;;-0.51;100.00
56038;BME280;41907;47.848;9.000;2023-03-15T05:50:48;95798.53;;;-0.46;100.00
56038;BME280;41907;47.848;9.000;2023-03-15T05:53:13;95803.91;;;-0.52;100.00
56038;BME280;41907;47.848;9.000;2023-03-15T05:55:39;95808.94;;;-0.51;100.00
56038;BME280;41907;47.848;9.000;2023-03-15T05:58:04;95802.56;;;-0.55;100.00
56038;BME280;41907;47.848;9.000;2023-03-15T06:00:30;95807.41;;;-0.47;100.00
56038;BME280;41907;47.848;9.000;2023-03-15T06:02:56;95808.78;;;-0.44;100.00
56038;BME280;41907;47.848;9.000;2023-03-15T06:05:21;95817.25;;;-0.37;100.00
56038;BME280;41907;47.848;9.000;2023-03-15T06:07:47;95816.75;;;-0.22;100.00
56038;BME280;41907;47.848;9.000;2023-03-15T06:10:12;95816.13;;;-0.13;100.00
56038;BME280;41907;47.848;9.000;2023-03-15T06:12:38;95818.81;;;-0.08;100.00
56038;BME280;41907;47.848;9.000;2023-03-15T06:15:04;95826.81;;;0.03;100.00
56038;BME280;41907;47.848;9.000;2023-03-15T06:17:30;95816.81;;;0.16;100.00
56038;BME280;41907;47.848;9.000;2023-03-15T06:19:55;95817.91;;;0.20;100.00
56038;BME280;41907;47.848;9.000;2023-03-15T06:22:20;95820.47;;;0.32;100.00
56038;BME280;41907;47.848;9.000;2023-03-15T06:24:48;95828.72;;;0.41;100.00
56038;BME280;41907;47.848;9.000;2023-03-15T06:27:14;95832.28;;;0.51;100.00
56038;BME280;41907;47.848;9.000;2023-03-15T06:29:39;95836.03;;;0.55;100.00
56038;BME280;41907;47.848;9.000;2023-03-15T06:32:05;95835.03;;;0.61;100.00
56038;BME280;41907;47.848;9.000;2023-03-15T06:34:30;95831.81;;;0.76;100.00
56038;BME280;41907;47.848;9.000;2023-03-15T06:36:56;95827.66;;;0.80;100.00
56038;BME280;41907;47.848;9.000;2023-03-15T06:39:21;95832.47;;;0.66;100.00
56038;BME280;41907;47.848;9.000;2023-03-15T06:41:48;95837.94;;;0.82;100.00
56038;BME280;41907;47.848;9.000;2023-03-15T06:44:13;95839.47;;;1.21;100.00
56038;BME280;41907;47.848;9.000;2023-03-15T06:46:38;95845.47;;;1.43;100.00
56038;BME280;41907;47.848;9.000;2023-03-15T06:49:04;95847.03;;;1.98;100.00
56038;BME280;41907;47.848;9.000;2023-03-15T06:51:29;95842.97;;;3.64;100.00
56038;BME280;41907;47.848;9.000;2023-03-15T06:53:54;95837.84;;;6.13;87.40
56038;BME280;41907;47.848;9.000;2023-03-15T06:56:21;95832.97;;;8.29;72.96
56038;BME280;41907;47.848;9.000;2023-03-15T06:58:46;95834.75;;;9.89;63.41
56038;BME280;41907;47.848;9.000;2023-03-15T07:01:12;95828.53;;;10.83;55.97
56038;BME280;41907;47.848;9.000;2023-03-15T07:03:38;95828.91;;;10.99;51.60
56038;BME280;41907;47.848;9.000;2023-03-15T07:06:04;95842.41;;;11.90;51.33
56038;BME280;41907;47.848;9.000;2023-03-15T07:08:29;95840.66;;;12.80;46.92
56038;BME280;41907;47.848;9.000;2023-03-15T07:10:55;95837.03;;;12.76;46.55
56038;BME280;41907;47.848;9.000;2023-03-15T07:13:20;95839.28;;;13.59;42.69
56038;BME280;41907;47.848;9.000;2023-03-15T07:15:50;95855.91;;;14.02;42.01
56038;BME280;41907;47.848;9.000;2023-03-15T07:18:16;95853.38;;;14.47;41.47
56038;BME280;41907;47.848;9.000;2023-03-15T07:20:41;95857.41;;;14.53;40.95
56038;BME280;41907;47.848;9.000;2023-03-15T07:23:07;95868.59;;;14.56;39.29
56038;BME280;41907;47.848;9.000;2023-03-15T07:25:32;95854.47;;;15.12;39.25
56038;BME280;41907;47.848;9.000;2023-03-15T07:27:57;95868.94;;;16.17;37.15
56038;BME280;41907;47.848;9.000;2023-03-15T07:30:23;95863.41;;;16.78;35.92
56038;BME280;41907;47.848;9.000;2023-03-15T07:32:48;95868.34;;;17.63;33.81
56038;BME280;41907;47.848;9.000;2023-03-15T07:35:14;95878.69;;;17.18;33.79
56038;BME280;41907;47.848;9.000;2023-03-15T07:37:39;95878.94;;;17.72;33.75
56038;BME280;41907;47.848;9.000;2023-03-15T07:40:05;95882.25;;;18.16;33.77
56038;BME280;41907;47.848;9.000;2023-03-15T07:42:38;95884.25;;;18.54;31.83
56038;BME280;41907;47.848;9.000;2023-03-15T07:45:05;95885.91;;;18.23;32.40
56038;BME280;41907;47.848;9.000;2023-03-15T07:47:31;95885.75;;;18.90;31.45
56038;BME280;41907;47.848;9.000;2023-03-15T07:49:56;95888.94;;;19.57;30.89
56038;BME280;41907;47.848;9.000;2023-03-15T07:52:23;95901.50;;;18.84;29.55
56038;BME280;41907;47.848;9.000;2023-03-15T07:54:48;95891.75;;;19.41;31.15
56038;BME280;41907;47.848;9.000;2023-03-15T07:57:13;95887.97;;;19.68;30.50
56038;BME280;41907;47.848;9.000;2023-03-15T07:59:39;95887.56;;;20.42;30.28
56038;BME280;41907;47.848;9.000;2023-03-15T08:02:04;95886.41;;;20.17;29.94
56038;BME280;41907;47.848;9.000;2023-03-15T08:04:30;95890.84;;;20.88;28.61
56038;BME280;41907;47.848;9.000;2023-03-15T08:06:55;95889.38;;;20.94;28.47
56038;BME280;41907;47.848;9.000;2023-03-15T08:09:21;95895.53;;;20.91;27.44
56038;BME280;41907;47.848;9.000;2023-03-15T08:11:46;95891.25;;;20.57;27.97
56038;BME280;41907;47.848;9.000;2023-03-15T08:14:12;95895.78;;;20.49;28.19
56038;BME280;41907;47.848;9.000;2023-03-15T08:16:37;95903.31;;;20.63;28.57
56038;BME280;41907;47.848;9.000;2023-03-15T08:19:03;95904.16;;;21.00;27.91
56038;BME280;41907;47.848;9.000;2023-03-15T08:21:28;95900.91;;;21.17;25.93
56038;BME280;41907;47.848;9.000;2023-03-15T08:23:53;95900.59;;;19.84;27.51
56038;BME280;41907;47.848;9.000;2023-03-15T08:26:19;95908.38;;;19.01;29.87
56038;BME280;41907;47.848;9.000;2023-03-15T08:28:44;95903.22;;;20.03;29.39
56038;BME280;41907;47.848;9.000;2023-03-15T08:31:09;95890.84;;;18.37;30.07
56038;BME280;41907;47.848;9.000;2023-03-15T08:33:38;95900.78;;;19.29;29.63
56038;BME280;41907;47.848;9.000;2023-03-15T08:36:04;95899.28;;;19.74;27.55
56038;BME280;41907;47.848;9.000;2023-03-15T08:38:30;95899.53;;;19.23;28.08
56038;BME280;41907;47.848;9.000;2023-03-15T08:40:56;95895.16;;;16.85;31.37
56038;BME280;41907;47.848;9.000;2023-03-15T08:43:21;95900.19;;;18.59;29.18
56038;BME280;41907;47.848;9.000;2023-03-15T08:45:48;95897.19;;;19.22;29.52
56038;BME280;41907;47.848;9.000;2023-03-15T08:48:14;95894.75;;;19.82;27.92
56038;BME280;41907;47.848;9.000;2023-03-15T08:50:40;95895.84;;;20.53;27.90
56038;BME280;41907;47.848;9.000;2023-03-15T08:53:05;95898.31;;;20.98;27.31
56038;BME280;41907;47.848;9.000;2023-03-15T08:55:30;95897.44;;;21.61;26.90
56038;BME280;41907;47.848;9.000;2023-03-15T08:57:56;95907.75;;;21.45;27.08
56038;BME280;41907;47.848;9.000;2023-03-15T09:00:21;95899.47;;;21.71;26.21
56038;BME280;41907;47.848;9.000;2023-03-15T09:02:51;95897.69;;;20.78;25.73
56038;BME280;41907;47.848;9.000;2023-03-15T09:05:17;95900.34;;;21.05;26.05
56038;BME280;41907;47.848;9.000;2023-03-15T09:07:43;95896.53;;;20.76;27.18
56038;BME280;41907;47.848;9.000;2023-03-15T09:10:10;95897.34;;;19.10;29.87
56038;BME280;41907;47.848;9.000;2023-03-15T09:12:39;95904.81;;;20.57;27.84
56038;BME280;41907;47.848;9.000;2023-03-15T09:15:05;95896.25;;;21.18;27.08
56038;BME280;41907;47.848;9.000;2023-03-15T09:17:30;95897.56;;;20.68;27.65
56038;BME280;41907;47.848;9.000;2023-03-15T09:19:56;95901.81;;;21.69;25.35
56038;BME280;41907;47.848;9.000;2023-03-15T09:22:21;95906.69;;;21.53;24.74
56038;BME280;41907;47.848;9.000;2023-03-15T09:24:46;95905.91;;;21.97;25.62
56038;BME280;41907;47.848;9.000;2023-03-15T09:27:12;95920.50;;;19.49;27.24
56038;BME280;41907;47.848;9.000;2023-03-15T09:29:37;95914.75;;;18.19;28.23
56038;BME280;41907;47.848;9.000;2023-03-15T09:32:03;95911.88;;;18.47;28.77
56038;BME280;41907;47.848;9.000;2023-03-15T09:34:28;95912.00;;;18.70;30.43
56038;BME280;41907;47.848;9.000;2023-03-15T09:36:54;95928.25;;;19.74;28.21
56038;BME280;41907;47.848;9.000;2023-03-15T09:39:20;95915.13;;;20.48;27.65
56038;BME280;41907;47.848;9.000;2023-03-15T09:41:49;95911.88;;;18.12;29.63
56038;BME280;41907;47.848;9.000;2023-03-15T09:49:36;95917.56;;;18.77;30.04
56038;BME280;41907;47.848;9.000;2023-03-15T09:58:04;95926.22;;;18.16;29.81
56038;BME280;41907;47.848;9.000;2023-03-15T10:00:39;95924.75;;;16.32;31.91
56038;BME280;41907;47.848;9.000;2023-03-15T10:06:32;95926.25;;;16.30;33.25
56038;BME280;41907;47.848;9.000;2023-03-15T10:09:02;95920.81;;;17.38;31.84
56038;BME280;41907;47.848;9.000;2023-03-15T10:11:34;95914.91;;;17.48;30.97
56038;BME280;41907;47.848;9.000;2023-03-15T10:16:49;95913.28;;;15.38;33.51
56038;BME280;41907;47.848;9.000;2023-03-15T10:22:30;95913.97;;;14.69;35.74
56038;BME280;41907;47.848;9.000;2023-03-15T10:25:03;95902.38;;;14.77;35.87
56038;BME280;41907;47.848;9.000;2023-03-15T10:27:46;95902.22;;;14.74;34.44
56038;BME280;41907;47.848;9.000;2023-03-15T10:30:16;95908.94;;;15.01;34.42
56038;BME280;41907;47.848;9.000;2023-03-15T10:32:44;95907.09;;;15.71;31.87
56038;BME280;41907;47.848;9.000;2023-03-15T10:35:17;95900.13;;;16.70;31.28
56038;BME280;41907;47.848;9.000;2023-03-15T10:37:43;95887.19;;;17.04;30.87
56038;BME280;41907;47.848;9.000;2023-03-15T10:40:11;95897.78;;;15.80;31.89
56038;BME280;41907;47.848;9.000;2023-03-15T10:42:46;95901.13;;;17.22;29.38
56038;BME280;41907;47.848;9.000;2023-03-15T10:45:24;95904.88;;;17.17;29.59
56038;BME280;41907;47.848;9.000;2023-03-15T10:47:50;95907.78;;;18.03;30.91
56038;BME280;41907;47.848;9.000;2023-03-15T10:50:42;95898.56;;;19.54;27.97
56038;BME280;41907;47.848;9.000;2023-03-15T10:53:10;95900.09;;;19.32;27.25
56038;BME280;41907;47.848;9.000;2023-03-15T10:55:44;95901.13;;;16.26;30.97
56038;BME280;41907;47.848;9.000;2023-03-15T11:00:57;95892.66;;;14.02;33.01
56038;BME280;41907;47.848;9.000;2023-03-15T11:03:24;95894.06;;;13.32;35.08
56038;BME280;41907;47.848;9.000;2023-03-15T11:05:55;95897.50;;;15.37;32.78
56038;BME280;41907;47.848;9.000;2023-03-15T11:08:35;95890.28;;;15.98;28.69
56038;BME280;41907;47.848;9.000;2023-03-15T11:11:04;95885.97;;;16.73;27.97
56038;BME280;41907;47.848;9.000;2023-03-15T11:13:31;95883.56;;;17.71;27.76
56038;BME280;41907;47.848;9.000;2023-03-15T11:15:59;95878.94;;;16.57;29.88
56038;BME280;41907;47.848;9.000;2023-03-15T11:18:45;95883.13;;;17.10;28.40
56038;BME280;41907;47.848;9.000;2023-03-15T11:21:13;95892.66;;;15.30;29.52
56038;BME280;41907;47.848;9.000;2023-03-15T11:23:42;95892.25;;;15.52;30.56
56038;BME280;41907;47.848;9.000;2023-03-15T11:26:26;95879.00;;;14.78;29.30
56038;BME280;41907;47.848;9.000;2023-03-15T11:28:55;95879.22;;;14.85;29.63
56038;BME280;41907;47.848;9.000;2023-03-15T11:31:25;95868.09;;;14.41;30.55
56038;BME280;41907;47.848;9.000;2023-03-15T11:33:58;95866.13;;;13.79;32.26
56038;BME280;41907;47.848;9.000;2023-03-15T11:36:29;95873.03;;;14.31;31.02
56038;BME280;41907;47.848;9.000;2023-03-15T11:38:59;95868.53;;;14.23;32.65
56038;BME280;41907;47.848;9.000;2023-03-15T11:41:33;95874.47;;;14.07;32.42
56038;BME280;41907;47.848;9.000;2023-03-15T11:44:09;95870.00;;;14.74;33.85
56038;BME280;41907;47.848;9.000;2023-03-15T11:46:47;95858.91;;;14.63;33.10
56038;BME280;41907;47.848;9.000;2023-03-15T11:52:05;95851.28;;;11.60;36.16
56038;BME280;41907;47.848;9.000;2023-03-15T11:54:30;95850.59;;;12.11;36.56
56038;BME280;41907;47.848;9.000;2023-03-15T11:59:53;95850.13;;;12.69;37.46
56038;BME280;41907;47.848;9.000;2023-03-15T12:04:51;95845.03;;;12.85;36.18
56038;BME280;41907;47.848;9.000;2023-03-15T12:10:17;95843.50;;;11.80;37.92
56038;BME280;41907;47.848;9.000;2023-03-15T12:12:44;95837.22;;;12.28;37.03
56038;BME280;41907;47.848;9.000;2023-03-15T12:17:42;95830.13;;;12.58;35.87
56038;BME280;41907;47.848;9.000;2023-03-15T12:22:58;95827.63;;;11.27;37.52
56038;BME280;41907;47.848;9.000;2023-03-15T12:25:30;95828.84;;;11.12;38.88
56038;BME280;41907;47.848;9.000;2023-03-15T12:27:57;95830.34;;;11.44;37.30
56038;BME280;41907;47.848;9.000;2023-03-15T12:30:32;95819.94;;;11.34;36.68
56038;BME280;41907;47.848;9.000;2023-03-15T12:33:01;95821.28;;;11.63;35.14
56038;BME280;41907;47.848;9.000;2023-03-15T12:35:32;95820.59;;;11.40;36.54
56038;BME280;41907;47.848;9.000;2023-03-15T12:38:02;95815.94;;;11.71;35.32
56038;BME280;41907;47.848;9.000;2023-03-15T12:40:37;95820.75;;;11.43;34.71
56038;BME280;41907;47.848;9.000;2023-03-15T12:43:02;95817.91;;;12.22;36.89
56038;BME280;41907;47.848;9.000;2023-03-15T12:45:35;95817.72;;;12.27;33.65
56038;BME280;41907;47.848;9.000;2023-03-15T12:50:48;95811.38;;;11.06;35.28
56038;BME280;41907;47.848;9.000;2023-03-15T12:53:46;95817.88;;;10.61;35.43
56038;BME280;41907;47.848;9.000;2023-03-15T12:56:39;95814.69;;;11.12;36.81
56038;BME280;41907;47.848;9.000;2023-03-15T12:59:37;95806.22;;;11.67;34.70
56038;BME280;41907;47.848;9.000;2023-03-15T13:02:01;95805.19;;;11.37;35.91
56038;BME280;41907;47.848;9.000;2023-03-15T13:04:28;95816.84;;;11.49;36.64
56038;BME280;41907;47.848;9.000;2023-03-15T13:10:18;95812.84;;;10.59;35.51
56038;BME280;41907;47.848;9.000;2023-03-15T13:13:12;95826.44;;;10.49;37.09
56038;BME280;41907;47.848;9.000;2023-03-15T13:16:03;95812.31;;;10.49;37.33
56038;BME280;41907;47.848;9.000;2023-03-15T13:18:35;95800.81;;;10.17;36.67
56038;BME280;41907;47.848;9.000;2023-03-15T13:21:14;95806.16;;;9.81;36.65
56038;BME280;41907;47.848;9.000;2023-03-15T13:23:48;95799.47;;;10.06;36.10
56038;BME280;41907;47.848;9.000;2023-03-15T13:26:34;95797.50;;;10.56;37.30
56038;BME280;41907;47.848;9.000;2023-03-15T13:29:48;95793.94;;;10.69;36.75
56038;BME280;41907;47.848;9.000;2023-03-15T13:32:10;95807.16;;;10.74;37.89
56038;BME280;41907;47.848;9.000;2023-03-15T13:34:36;95802.50;;;10.89;38.45
56038;BME280;41907;47.848;9.000;2023-03-15T13:37:02;95812.84;;;10.81;37.40
56038;BME280;41907;47.848;9.000;2023-03-15T13:39:30;95816.66;;;10.67;37.50
56038;BME280;41907;47.848;9.000;2023-03-15T13:42:17;95805.44;;;10.78;37.50
56038;BME280;41907;47.848;9.000;2023-03-15T13:44:43;95798.06;;;10.75;35.85
56038;BME280;41907;47.848;9.000;2023-03-15T13:47:18;95805.00;;;10.54;35.92
56038;BME280;41907;47.848;9.000;2023-03-15T13:49:43;95810.41;;;10.18;36.82
56038;BME280;41907;47.848;9.000;2023-03-15T13:52:09;95805.34;;;10.17;37.00
56038;BME280;41907;47.848;9.000;2023-03-15T13:54:40;95801.69;;;10.13;38.27
56038;BME280;41907;47.848;9.000;2023-03-15T13:57:07;95798.72;;;10.28;38.00
56038;BME280;41907;47.848;9.000;2023-03-15T13:59:40;95793.06;;;10.29;37.83
56038;BME280;41907;47.848;9.000;2023-03-15T14:02:21;95799.53;;;10.15;36.47